Time;durP1;ratioP1;P1;durP2;ratioP2;P2;SDS_P1;SDS_P2;PMS_P1;PMS_P2;Temp;Humidity;BMP_temperature;BMP_pressure;BME280_temperature;BME280_humidity;BME280_pressure;Samples;Min_cycle;Max_cycle;Signal;HPM_P1;HPM_P2
2021/05/23 00:01:18;;;;;;;12.18;4.57;;;7.60;99.90;;;;;;6065309;23;20026;-85
2021/05/23 00:03:45;;;;;;;13.05;4.88;;;7.60;99.90;;;;;;6065169;23;20026;-85
2021/05/23 00:06:12;;;;;;;18.63;5.90;;;7.50;99.90;;;;;;6066864;23;20108;-83
2021/05/23 00:08:39;;;;;;;22.17;5.43;;;7.50;99.90;;;;;;6067379;23;20018;-84
2021/05/23 00:11:09;;;;;;;17.38;4.95;;;7.50;99.90;;;;;;6064630;23;20042;-85
2021/05/23 00:13:57;;;;;;;16.45;5.10;;;7.50;99.90;;;;;;6065478;23;20387;-85
2021/05/23 00:16:26;;;;;;;16.27;5.05;;;7.50;99.90;;;;;;6091370;23;20033;-86
2021/05/23 00:18:54;;;;;;;17.98;6.07;;;7.50;99.90;;;;;;6066181;23;20101;-84
2021/05/23 00:21:22;;;;;;;15.80;4.40;;;7.50;99.90;;;;;;6092194;23;20073;-85
2021/05/23 00:23:49;;;;;;;14.60;4.40;;;7.40;99.90;;;;;;6066587;23;20081;-85
2021/05/23 00:26:16;;;;;;;16.80;4.82;;;7.40;99.90;;;;;;6067964;23;20363;-86
2021/05/23 00:28:43;;;;;;;19.02;5.30;;;7.30;99.90;;;;;;6065908;23;20033;-86
2021/05/23 00:31:10;;;;;;;19.02;5.47;;;7.30;99.90;;;;;;6069095;23;20360;-86
2021/05/23 00:33:37;;;;;;;14.43;5.63;;;7.10;99.90;;;;;;6066896;23;20050;-86
2021/05/23 00:36:04;;;;;;;14.70;5.68;;;7.10;99.90;;;;;;6069771;23;20102;-86
2021/05/23 00:38:31;;;;;;;17.83;6.75;;;7.10;99.90;;;;;;6067759;23;20046;-86
2021/05/23 00:40:58;;;;;;;12.35;5.40;;;7.00;99.90;;;;;;6068147;23;20459;-84
2021/05/23 00:43:25;;;;;;;15.68;5.13;;;7.00;99.90;;;;;;6093746;23;20404;-84
2021/05/23 00:45:52;;;;;;;14.60;5.63;;;7.00;99.90;;;;;;6066787;23;20448;-84
2021/05/23 00:48:21;;;;;;;14.25;5.65;;;7.00;99.90;;;;;;6068834;23;20022;-85
2021/05/23 00:50:49;;;;;;;15.43;6.63;;;6.90;99.90;;;;;;6069207;23;20022;-84
2021/05/23 00:53:16;;;;;;;19.67;6.07;;;6.90;99.90;;;;;;6066998;23;20061;-85
2021/05/23 00:55:43;;;;;;;14.95;5.47;;;6.90;99.90;;;;;;6067934;23;20045;-85
2021/05/23 00:58:10;;;;;;;23.27;6.43;;;6.90;99.90;;;;;;6067615;23;20054;-84
2021/05/23 01:00:40;;;;;;;17.33;5.45;;;6.90;99.90;;;;;;6069008;23;20077;-84
2021/05/23 01:03:25;;;;;;;17.35;5.65;;;6.80;99.90;;;;;;6066911;23;20010;-84
2021/05/23 01:06:04;;;;;;;12.25;5.50;;;6.80;99.90;;;;;;6067726;23;20030;-84
2021/05/23 01:08:32;;;;;;;11.90;4.80;;;6.70;99.90;;;;;;6067224;23;20075;-85
2021/05/23 01:11:22;;;;;;;17.95;6.20;;;6.70;99.90;;;;;;6068066;23;20022;-84
2021/05/23 01:13:58;;;;;;;11.20;4.40;;;6.60;99.90;;;;;;6043540;23;20052;-84
2021/05/23 01:16:34;;;;;;;18.23;6.25;;;6.60;99.90;;;;;;6067115;23;20018;-85
2021/05/23 01:19:24;;;;;;;17.02;6.30;;;6.60;99.90;;;;;;6069511;23;20049;-85
2021/05/23 01:22:00;;;;;;;14.10;6.00;;;6.70;99.90;;;;;;6039923;23;20023;-85
2021/05/23 01:24:34;;;;;;;24.73;6.57;;;6.70;99.90;;;;;;6067753;23;20106;-85
2021/05/23 01:27:01;;;;;;;17.85;6.13;;;6.70;99.90;;;;;;6042709;23;20018;-85
2021/05/23 01:29:29;;;;;;;23.92;7.18;;;6.60;99.90;;;;;;6069007;23;20022;-85
2021/05/23 01:31:56;;;;;;;14.98;6.63;;;6.70;99.90;;;;;;6092000;23;20049;-85
2021/05/23 01:34:23;;;;;;;16.38;6.30;;;6.70;99.90;;;;;;6092938;23;20027;-85
2021/05/23 01:36:53;;;;;;;20.92;7.93;;;6.70;99.90;;;;;;6094555;23;20022;-85
2021/05/23 01:39:21;;;;;;;17.58;7.70;;;6.70;99.90;;;;;;6065901;23;20763;-85
2021/05/23 01:41:50;;;;;;;24.98;7.50;;;6.70;99.90;;;;;;6064214;23;20138;-85
2021/05/23 01:44:17;;;;;;;15.18;7.35;;;6.70;99.90;;;;;;6065558;23;20568;-85
2021/05/23 01:46:46;;;;;;;22.88;8.30;;;6.70;99.90;;;;;;6067167;23;20014;-85
2021/05/23 01:49:12;;;;;;;27.50;7.95;;;6.70;99.90;;;;;;6068108;23;20068;-85
2021/05/23 01:51:39;;;;;;;31.48;8.70;;;6.70;99.90;;;;;;6068224;23;20188;-86
2021/05/23 01:54:06;;;;;;;16.58;7.82;;;6.70;99.90;;;;;;6068973;23;20038;-85
2021/05/23 01:56:33;;;;;;;18.02;7.95;;;6.70;99.90;;;;;;6068755;23;20031;-85
2021/05/23 01:59:00;;;;;;;22.55;7.43;;;6.70;99.90;;;;;;6067015;23;20450;-85
2021/05/23 02:01:27;;;;;;;23.98;7.53;;;6.70;99.90;;;;;;6069143;23;20030;-86
2021/05/23 02:03:57;;;;;;;19.75;7.50;;;6.70;99.90;;;;;;6068666;23;20022;-85
2021/05/23 02:06:24;;;;;;;19.63;7.10;;;6.70;99.90;;;;;;6066559;23;20022;-86
2021/05/23 02:08:51;;;;;;;13.32;6.22;;;6.70;99.90;;;;;;6067007;23;20105;-85
2021/05/23 02:11:18;;;;;;;17.25;7.15;;;6.70;99.90;;;;;;6068123;23;20098;-85
2021/05/23 02:13:51;;;;;;;28.33;8.02;;;6.70;99.90;;;;;;6068611;23;20522;-85
2021/05/23 02:16:18;;;;;;;20.45;6.30;;;6.70;99.90;;;;;;6067354;23;20026;-85
2021/05/23 02:18:46;;;;;;;24.33;7.25;;;6.70;99.90;;;;;;6069210;23;20031;-84
2021/05/23 02:21:14;;;;;;;28.75;7.75;;;6.70;99.90;;;;;;6068994;23;20366;-85
2021/05/23 02:23:51;;;;;;;20.80;7.75;;;6.70;99.90;;;;;;6069295;23;20026;-84
2021/05/23 02:26:19;;;;;;;20.42;6.82;;;6.70;99.90;;;;;;6094193;23;20500;-84
2021/05/23 02:28:45;;;;;;;20.27;7.20;;;6.70;99.90;;;;;;6068676;23;20088;-85
2021/05/23 02:31:13;;;;;;;16.00;6.47;;;6.70;99.90;;;;;;6067346;23;20532;-86
2021/05/23 02:33:39;;;;;;;22.20;7.25;;;6.70;99.90;;;;;;6066211;23;20411;-85
2021/05/23 02:36:06;;;;;;;24.60;7.47;;;6.70;99.90;;;;;;6066907;23;20018;-85
2021/05/23 02:38:33;;;;;;;18.17;6.55;;;6.70;99.90;;;;;;6066973;23;20049;-85
2021/05/23 02:41:00;;;;;;;23.65;6.15;;;6.60;99.90;;;;;;6092976;23;20069;-85
2021/05/23 02:43:28;;;;;;;17.35;6.82;;;6.60;99.90;;;;;;6065076;23;20546;-84
2021/05/23 02:45:55;;;;;;;30.77;6.78;;;6.70;99.90;;;;;;6063112;23;20455;-84
2021/05/23 02:48:22;;;;;;;19.90;6.68;;;6.70;99.90;;;;;;6092478;23;20089;-84
2021/05/23 02:50:52;;;;;;;16.25;6.07;;;6.70;99.90;;;;;;6068632;23;20411;-85
2021/05/23 02:53:19;;;;;;;22.98;6.32;;;6.80;99.90;;;;;;6066069;23;20102;-85
2021/05/23 02:55:48;;;;;;;18.63;6.45;;;6.80;99.90;;;;;;6067276;23;20052;-85
2021/05/23 02:58:16;;;;;;;19.15;5.47;;;6.80;99.90;;;;;;6066879;23;20049;-84
2021/05/23 03:00:44;;;;;;;24.08;6.80;;;6.80;99.90;;;;;;6069184;23;20053;-85
2021/05/23 03:03:12;;;;;;;16.27;6.13;;;6.80;99.90;;;;;;6064840;23;20463;-85
2021/05/23 03:05:40;;;;;;;19.13;6.68;;;6.80;99.90;;;;;;6067858;23;20034;-85
2021/05/23 03:08:07;;;;;;;19.42;6.25;;;6.90;99.90;;;;;;6066138;23;20074;-85
2021/05/23 03:10:43;;;;;;;20.42;7.25;;;6.90;99.90;;;;;;6053981;23;20030;-85
2021/05/23 03:13:11;;;;;;;24.70;6.78;;;7.00;99.90;;;;;;6063214;23;20016;-84
2021/05/23 03:15:38;;;;;;;28.55;7.45;;;7.00;99.90;;;;;;6052206;23;20062;-84
2021/05/23 03:18:05;;;;;;;16.60;6.68;;;7.10;99.90;;;;;;6064276;23;20490;-85
2021/05/23 03:20:34;;;;;;;15.07;6.35;;;7.20;99.90;;;;;;6064705;23;20046;-85
2021/05/23 03:23:01;;;;;;;16.52;5.55;;;7.20;99.90;;;;;;6066499;23;20050;-85
2021/05/23 03:25:29;;;;;;;11.93;5.57;;;7.20;99.90;;;;;;6065318;23;20084;-85
2021/05/23 03:27:57;;;;;;;14.57;6.57;;;7.30;99.90;;;;;;6065754;23;20394;-85
2021/05/23 03:30:27;;;;;;;21.73;6.72;;;7.30;99.90;;;;;;6064597;23;20101;-85
2021/05/23 03:32:54;;;;;;;19.38;8.40;;;7.30;99.90;;;;;;6066398;23;20545;-85
2021/05/23 03:35:23;;;;;;;18.50;7.43;;;7.30;99.90;;;;;;6066087;23;20018;-85
2021/05/23 03:37:51;;;;;;;13.50;6.60;;;7.40;99.90;;;;;;6063001;23;20073;-85
2021/05/23 03:40:18;;;;;;;13.45;6.40;;;7.40;99.90;;;;;;6066671;23;20102;-85
2021/05/23 03:42:49;;;;;;;14.75;5.93;;;7.50;99.90;;;;;;6054582;23;20026;-85
2021/05/23 03:45:18;;;;;;;14.27;6.05;;;7.50;99.90;;;;;;6067330;23;20078;-85
2021/05/23 03:47:46;;;;;;;21.65;6.43;;;7.50;99.90;;;;;;6066163;23;20106;-85
2021/05/23 03:50:17;;;;;;;15.85;5.35;;;7.60;99.90;;;;;;6066111;23;20058;-86
2021/05/23 03:52:45;;;;;;;22.60;6.32;;;7.60;99.90;;;;;;6091864;23;20054;-82
2021/05/23 03:55:12;;;;;;;13.88;5.78;;;7.60;99.90;;;;;;6063056;23;20026;-82
2021/05/23 03:57:39;;;;;;;14.10;6.13;;;7.60;99.90;;;;;;6066751;23;20057;-83
2021/05/23 04:00:09;;;;;;;22.95;6.65;;;7.60;99.90;;;;;;6065922;23;20026;-81
2021/05/23 04:02:36;;;;;;;18.67;6.57;;;7.60;99.90;;;;;;6066065;23;20073;-82
2021/05/23 04:05:04;;;;;;;15.40;6.00;;;7.70;99.90;;;;;;6067533;23;20015;-82
2021/05/23 04:07:31;;;;;;;19.73;6.07;;;7.60;99.90;;;;;;6094155;23;20093;-82
2021/05/23 04:09:59;;;;;;;15.23;6.70;;;7.60;99.90;;;;;;6071614;23;20402;-83
2021/05/23 04:12:39;;;;;;;19.05;6.28;;;7.70;99.90;;;;;;6078224;23;20058;-82
2021/05/23 04:15:07;;;;;;;16.42;7.40;;;7.70;99.90;;;;;;6085275;23;20022;-82
2021/05/23 04:17:35;;;;;;;25.95;6.18;;;7.70;99.90;;;;;;6084874;23;20496;-82
2021/05/23 04:20:08;;;;;;;20.92;6.25;;;7.70;99.90;;;;;;6084910;23;20043;-82
2021/05/23 04:22:35;;;;;;;23.90;6.57;;;7.70;99.90;;;;;;6060755;23;20022;-82
2021/05/23 04:25:09;;;;;;;17.58;6.13;;;7.70;99.90;;;;;;6084636;23;20074;-81
2021/05/23 04:27:36;;;;;;;20.05;5.68;;;7.70;99.90;;;;;;6084615;23;20022;-81
2021/05/23 04:30:05;;;;;;;14.55;6.15;;;7.70;99.90;;;;;;6083764;23;20006;-82
2021/05/23 04:32:32;;;;;;;14.90;5.28;;;7.80;99.90;;;;;;6043661;23;20030;-81
2021/05/23 04:34:59;;;;;;;11.60;5.68;;;7.80;99.90;;;;;;6069248;23;20102;-82
2021/05/23 04:37:26;;;;;;;15.65;6.95;;;8.00;99.90;;;;;;6066642;23;20097;-82
2021/05/23 04:39:54;;;;;;;19.40;5.90;;;8.10;99.90;;;;;;6067101;23;20027;-81
2021/05/23 04:42:27;;;;;;;;;;;8.30;99.90;;;;;;6069748;23;20617;-82
2021/05/23 04:45:17;;;;;;;21.08;6.28;;;8.40;99.90;;;;;;6091558;23;20000;-82
2021/05/23 04:47:44;;;;;;;20.73;5.72;;;8.60;99.90;;;;;;6066322;23;20452;-82
2021/05/23 04:50:12;;;;;;;16.80;5.57;;;8.80;99.90;;;;;;6066311;23;20014;-82
2021/05/23 04:52:39;;;;;;;15.80;5.90;;;8.90;99.90;;;;;;6066020;23;20319;-82
2021/05/23 04:55:07;;;;;;;21.00;6.63;;;9.10;99.90;;;;;;6067919;23;20396;-82
2021/05/23 04:57:34;;;;;;;18.48;6.25;;;9.20;99.90;;;;;;6066163;23;20026;-82
2021/05/23 05:00:01;;;;;;;15.40;6.22;;;9.30;99.90;;;;;;6067086;23;20022;-82
2021/05/23 05:02:28;;;;;;;16.88;6.05;;;9.40;99.90;;;;;;6066540;23;20032;-82
2021/05/23 05:04:55;;;;;;;14.35;6.30;;;9.60;99.90;;;;;;6068313;23;20042;-84
2021/05/23 05:07:22;;;;;;;18.65;6.50;;;9.70;99.90;;;;;;6067426;23;20018;-84
2021/05/23 05:09:49;;;;;;;24.58;8.05;;;9.90;99.90;;;;;;6066596;23;20414;-84
2021/05/23 05:12:15;;;;;;;28.83;14.90;;;10.00;99.90;;;;;;6069009;23;20030;-84
2021/05/23 05:14:42;;;;;;;48.78;24.60;;;10.20;99.90;;;;;;6066959;23;20065;-84
2021/05/23 05:17:09;;;;;;;26.27;12.13;;;10.30;99.90;;;;;;6068587;23;20058;-83
2021/05/23 05:19:36;;;;;;;20.98;9.13;;;10.30;99.90;;;;;;6068544;23;20053;-84
2021/05/23 05:22:03;;;;;;;15.27;7.32;;;10.30;99.90;;;;;;6066376;23;20553;-83
2021/05/23 05:24:30;;;;;;;23.85;13.07;;;10.30;99.90;;;;;;6066549;23;20096;-84
2021/05/23 05:26:57;;;;;;;24.80;9.15;;;10.40;99.90;;;;;;6070188;23;20033;-83
2021/05/23 05:29:24;;;;;;;21.13;7.13;;;10.40;99.90;;;;;;6068274;23;20082;-83
2021/05/23 05:31:51;;;;;;;22.15;8.02;;;10.50;99.90;;;;;;6044246;23;20040;-83
2021/05/23 05:34:18;;;;;;;19.77;6.68;;;10.50;99.90;;;;;;6066282;23;20023;-83
2021/05/23 05:36:45;;;;;;;24.23;7.60;;;10.60;99.90;;;;;;6068733;23;20030;-82
2021/05/23 05:39:12;;;;;;;18.73;7.07;;;10.50;99.90;;;;;;6066750;23;20478;-82
2021/05/23 05:41:38;;;;;;;18.15;7.53;;;10.50;99.90;;;;;;6042587;23;20051;-83
2021/05/23 05:44:07;;;;;;;17.98;7.82;;;10.50;99.90;;;;;;6038800;23;20045;-83
2021/05/23 05:46:34;;;;;;;21.95;8.70;;;10.60;99.90;;;;;;6065697;23;20059;-82
2021/05/23 05:49:00;;;;;;;22.70;8.10;;;10.70;99.90;;;;;;6062409;23;20130;-83
2021/05/23 05:51:27;;;;;;;27.65;7.90;;;10.70;99.90;;;;;;6038680;23;20109;-83
2021/05/23 05:53:54;;;;;;;20.13;7.72;;;10.80;99.90;;;;;;6061652;23;20030;-83
2021/05/23 05:56:21;;;;;;;19.13;8.70;;;10.80;99.90;;;;;;6064603;23;20064;-83
2021/05/23 05:58:48;;;;;;;22.30;9.38;;;10.70;99.90;;;;;;6061246;23;20034;-84
2021/05/23 06:01:15;;;;;;;22.42;9.95;;;10.60;99.90;;;;;;6062685;23;20019;-85
2021/05/23 06:03:41;;;;;;;16.15;8.70;;;10.50;99.90;;;;;;6061700;23;20027;-85
2021/05/23 06:06:08;;;;;;;21.33;9.45;;;10.50;99.90;;;;;;6063085;23;20023;-84
2021/05/23 06:08:35;;;;;;;19.42;9.20;;;10.40;99.90;;;;;;6060944;23;20026;-84
2021/05/23 06:11:02;;;;;;;15.90;8.93;;;10.50;99.90;;;;;;6065436;23;20106;-84
2021/05/23 06:13:29;;;;;;;18.20;8.73;;;10.50;99.90;;;;;;6064299;23;20026;-83
2021/05/23 06:15:56;;;;;;;17.92;8.32;;;10.50;99.90;;;;;;6063386;23;20105;-84
2021/05/23 06:18:28;;;;;;;17.85;9.02;;;10.50;99.90;;;;;;6060801;23;20101;-83
2021/05/23 06:20:55;;;;;;;15.35;8.38;;;10.50;99.90;;;;;;6060769;23;20087;-83
2021/05/23 06:23:22;;;;;;;18.17;8.52;;;10.50;99.90;;;;;;6060097;23;20030;-84
2021/05/23 06:25:49;;;;;;;22.15;11.77;;;10.60;99.90;;;;;;6062449;23;20050;-83
2021/05/23 06:28:16;;;;;;;20.75;10.57;;;10.50;99.90;;;;;;6059277;23;20447;-83
2021/05/23 06:30:43;;;;;;;23.95;11.32;;;10.50;99.90;;;;;;6061813;23;20055;-83
2021/05/23 06:33:10;;;;;;;20.45;9.40;;;10.60;99.90;;;;;;6063069;23;20368;-83
2021/05/23 06:35:37;;;;;;;20.40;11.20;;;10.60;99.90;;;;;;6061273;23;20030;-83
2021/05/23 06:38:04;;;;;;;27.17;12.10;;;10.60;99.90;;;;;;6049871;23;20042;-84
2021/05/23 06:40:31;;;;;;;20.13;11.95;;;10.70;99.90;;;;;;6071906;23;20050;-84
2021/05/23 06:42:57;;;;;;;20.13;12.45;;;10.70;99.90;;;;;;6092663;23;20066;-84
2021/05/23 06:45:25;;;;;;;26.70;12.25;;;10.90;99.90;;;;;;6093790;23;20030;-83
2021/05/23 06:47:51;;;;;;;21.98;11.65;;;11.00;99.90;;;;;;6092073;23;20097;-83
2021/05/23 06:50:18;;;;;;;19.75;11.35;;;11.10;99.90;;;;;;6091898;23;25726;-83
2021/05/23 06:52:45;;;;;;;19.67;12.35;;;11.10;99.90;;;;;;6095561;23;20134;-84
2021/05/23 06:55:12;;;;;;;28.10;12.48;;;11.20;99.90;;;;;;6091465;23;20105;-83
2021/05/23 06:57:39;;;;;;;26.67;13.80;;;11.20;99.90;;;;;;6094235;23;20037;-83
2021/05/23 07:00:08;;;;;;;26.92;14.13;;;11.20;99.90;;;;;;6090971;23;20026;-83
2021/05/23 07:02:35;;;;;;;29.80;14.57;;;11.20;99.90;;;;;;6091214;23;20422;-83
2021/05/23 07:05:03;;;;;;;23.45;13.10;;;11.30;99.90;;;;;;6091021;23;20050;-83
2021/05/23 07:07:31;;;;;;;25.15;13.95;;;11.30;99.90;;;;;;6092002;23;20479;-83
2021/05/23 07:09:59;;;;;;;26.10;14.10;;;11.30;99.90;;;;;;6090379;23;20034;-83
2021/05/23 07:12:26;;;;;;;27.00;15.02;;;11.30;99.90;;;;;;6090937;23;20061;-83
2021/05/23 07:14:53;;;;;;;27.40;14.30;;;11.20;99.90;;;;;;6089637;23;20085;-83
2021/05/23 07:17:20;;;;;;;23.88;14.95;;;11.20;99.90;;;;;;6089498;23;21448;-83
2021/05/23 07:19:46;;;;;;;25.95;14.63;;;11.20;99.90;;;;;;6088575;23;20101;-83
2021/05/23 07:22:14;;;;;;;16.73;11.10;;;11.20;99.90;;;;;;6090906;23;20482;-83
2021/05/23 07:24:40;;;;;;;5.72;4.43;;;11.20;99.90;;;;;;6089851;23;20552;-82
2021/05/23 07:27:31;;;;;;;4.18;3.72;;;11.20;99.90;;;;;;6075195;23;25054;-83
2021/05/23 07:30:02;;;;;;;4.47;3.35;;;11.30;99.90;;;;;;5976678;23;20023;-82
2021/05/23 07:32:33;;;;;;;4.95;3.03;;;11.40;99.90;;;;;;6066253;23;20029;-82
2021/05/23 07:35:06;;;;;;;4.50;3.30;;;11.40;99.90;;;;;;5974478;23;20531;-82
2021/05/23 07:37:36;;;;;;;2.53;2.10;;;11.50;99.90;;;;;;6073263;23;20477;-82
2021/05/23 07:40:04;;;;;;;1.95;1.60;;;11.60;99.90;;;;;;6092929;23;20022;-81
2021/05/23 07:42:35;;;;;;;2.42;1.55;;;11.70;99.90;;;;;;6068427;23;20478;-83
2021/05/23 07:45:04;;;;;;;1.98;1.75;;;11.70;99.90;;;;;;6099965;23;20256;-82
2021/05/23 07:47:30;;;;;;;4.47;1.60;;;11.70;99.90;;;;;;6068753;23;20093;-82
2021/05/23 07:49:58;;;;;;;1.65;1.45;;;11.70;99.90;;;;;;6078066;23;20018;-83
2021/05/23 07:52:25;;;;;;;1.75;1.65;;;11.80;99.90;;;;;;6030398;23;20406;-83
2021/05/23 07:54:52;;;;;;;1.52;1.30;;;11.90;99.90;;;;;;6088220;23;20013;-82
2021/05/23 07:57:19;;;;;;;1.20;1.10;;;12.00;99.90;;;;;;6074776;23;20017;-82
2021/05/23 07:59:46;;;;;;;1.20;1.10;;;12.10;99.90;;;;;;6059213;23;20030;-82
2021/05/23 08:02:22;;;;;;;1.33;1.20;;;12.20;99.90;;;;;;6072135;23;20022;-83
2021/05/23 08:04:49;;;;;;;1.85;1.40;;;12.40;99.90;;;;;;6087386;23;20034;-83
2021/05/23 08:07:16;;;;;;;2.38;2.05;;;12.50;99.90;;;;;;6094451;23;20018;-83
2021/05/23 08:09:43;;;;;;;1.85;1.42;;;12.50;99.90;;;;;;6064477;23;20041;-82
2021/05/23 08:12:12;;;;;;;2.95;1.40;;;12.50;99.90;;;;;;6094444;23;20034;-82
2021/05/23 08:14:39;;;;;;;1.85;1.50;;;12.60;99.90;;;;;;6091999;23;20041;-82
2021/05/23 08:17:06;;;;;;;2.55;1.55;;;12.70;99.90;;;;;;6051442;23;20022;-83
2021/05/23 08:19:36;;;;;;;3.35;1.38;;;12.80;99.90;;;;;;6079364;23;20084;-83
2021/05/23 08:22:03;;;;;;;1.60;1.50;;;12.90;99.90;;;;;;6041309;23;20425;-82
2021/05/23 08:24:32;;;;;;;1.55;1.45;;;13.00;99.90;;;;;;6090536;23;20087;-82
2021/05/23 08:27:01;;;;;;;1.63;1.20;;;13.10;99.90;;;;;;6089023;23;20021;-83
2021/05/23 08:29:51;;;;;;;1.60;1.50;;;13.10;99.90;;;;;;6044140;23;21496;-81
2021/05/23 08:32:27;;;;;;;1.65;1.42;;;13.10;99.90;;;;;;6049469;23;20407;-84
2021/05/23 08:34:54;;;;;;;1.40;1.30;;;13.10;99.90;;;;;;6091988;23;20024;-83
2021/05/23 08:37:24;;;;;;;2.15;1.45;;;13.10;99.90;;;;;;6046101;23;20081;-84
2021/05/23 08:39:51;;;;;;;1.55;1.45;;;13.30;99.90;;;;;;6080319;23;20021;-82
2021/05/23 08:42:54;;;;;;;1.77;1.27;;;13.40;99.90;;;;;;6105699;23;20018;-83
2021/05/23 08:45:21;;;;;;;2.27;2.03;;;13.50;99.90;;;;;;6077908;23;20054;-82
2021/05/23 08:47:50;;;;;;;3.33;1.55;;;13.50;99.90;;;;;;6094698;23;20600;-84
2021/05/23 08:50:22;;;;;;;2.75;1.90;;;13.60;99.90;;;;;;6079264;23;20053;-83
2021/05/23 08:53:02;;;;;;;2.72;2.47;;;13.80;99.90;;;;;;6054563;23;20057;-83
2021/05/23 08:55:31;;;;;;;5.73;3.27;;;13.90;99.90;;;;;;6052688;23;20069;-83
2021/05/23 08:58:00;;;;;;;6.35;4.35;;;13.90;99.90;;;;;;6042966;23;20055;-83
2021/05/23 09:00:30;;;;;;;8.00;4.13;;;13.90;99.90;;;;;;6076873;23;20022;-83
2021/05/23 09:03:16;;;;;;;9.43;5.18;;;13.70;99.90;;;;;;6117373;23;20022;-82
2021/05/23 09:05:50;;;;;;;12.38;5.78;;;13.50;99.90;;;;;;6080787;23;20021;-83
2021/05/23 09:08:21;;;;;;;6.88;5.88;;;13.40;99.90;;;;;;6063767;23;20052;-83
2021/05/23 09:11:00;;;;;;;9.98;6.15;;;13.50;99.90;;;;;;6077005;23;20076;-82
2021/05/23 09:13:53;;;;;;;8.52;4.90;;;13.80;99.90;;;;;;6068794;23;20025;-82
2021/05/23 09:16:24;;;;;;;10.75;5.70;;;14.20;99.90;;;;;;6060796;23;20018;-83
2021/05/23 09:18:57;;;;;;;10.57;4.95;;;14.80;99.90;;;;;;6080562;23;20057;-82
2021/05/23 09:21:30;;;;;;;13.18;5.05;;;15.30;99.90;;;;;;6035795;23;20045;-82
2021/05/23 09:24:01;;;;;;;12.77;4.90;;;15.60;99.90;;;;;;6042283;23;20021;-83
2021/05/23 09:26:31;;;;;;;10.05;4.47;;;15.70;99.90;;;;;;6079186;23;20034;-83
2021/05/23 09:29:09;;;;;;;6.18;3.70;;;15.50;99.90;;;;;;6079732;23;20066;-83
2021/05/23 09:31:37;;;;;;;10.27;4.32;;;15.20;99.90;;;;;;6096092;23;20128;-83
2021/05/23 09:34:05;;;;;;;10.95;4.72;;;15.00;99.90;;;;;;6093935;23;20042;-83
2021/05/23 09:36:44;;;;;;;3.60;2.70;;;15.00;99.90;;;;;;6096123;23;20033;-82
2021/05/23 09:39:11;;;;;;;3.38;2.65;;;15.10;99.90;;;;;;6095215;23;20126;-82
2021/05/23 09:41:38;;;;;;;3.13;2.35;;;15.20;99.90;;;;;;6091197;23;20029;-83
2021/05/23 09:44:16;;;;;;;5.05;2.28;;;15.20;99.90;;;;;;6091456;23;20034;-83
2021/05/23 09:47:04;;;;;;;7.15;2.42;;;15.20;99.90;;;;;;6090662;23;20105;-83
2021/05/23 09:49:40;;;;;;;6.43;1.95;;;15.30;99.90;;;;;;6091715;23;20022;-82
2021/05/23 09:52:17;;;;;;;11.23;2.70;;;15.40;99.90;;;;;;6091943;23;20046;-83
2021/05/23 09:54:53;;;;;;;4.85;2.35;;;15.30;99.90;;;;;;6091064;23;20065;-83
2021/05/23 09:57:22;;;;;;;2.28;2.10;;;15.20;99.90;;;;;;6088890;23;20069;-83
2021/05/23 10:00:10;;;;;;;1.65;1.55;;;15.10;99.90;;;;;;6091447;23;20046;-83
2021/05/23 10:02:54;;;;;;;2.92;1.40;;;15.10;99.90;;;;;;6089471;23;20022;-83
2021/05/23 10:05:23;;;;;;;5.80;1.88;;;14.90;99.90;;;;;;6091475;23;20053;-83
2021/05/23 10:07:50;;;;;;;5.80;2.10;;;14.60;99.90;;;;;;6090214;23;20101;-83
2021/05/23 10:10:17;;;;;;;6.40;2.00;;;14.20;99.90;;;;;;6092503;23;20022;-83
2021/05/23 10:12:45;;;;;;;4.55;1.98;;;13.80;99.90;;;;;;6090850;23;20045;-83
2021/05/23 10:15:13;;;;;;;3.10;1.70;;;13.50;99.90;;;;;;6090593;23;20030;-83
2021/05/23 10:17:56;;;;;;;4.35;1.52;;;13.20;99.90;;;;;;6092728;23;20097;-83
2021/05/23 10:20:26;;;;;;;4.78;2.22;;;13.10;99.90;;;;;;6091133;23;20006;-82
2021/05/23 10:22:55;;;;;;;4.18;1.92;;;13.10;99.90;;;;;;6090008;23;20057;-82
2021/05/23 10:25:22;;;;;;;3.00;1.70;;;13.30;99.90;;;;;;6091716;23;20052;-82
2021/05/23 10:27:51;;;;;;;3.08;1.30;;;13.60;99.90;;;;;;6091101;23;20075;-83
2021/05/23 10:30:19;;;;;;;3.97;1.63;;;13.90;99.90;;;;;;6089545;23;20129;-83
2021/05/23 10:32:46;;;;;;;5.55;2.17;;;13.90;99.90;;;;;;6086824;23;20478;-83
2021/05/23 10:35:20;;;;;;;3.75;1.45;;;13.90;99.90;;;;;;6090013;23;20022;-83
2021/05/23 10:37:49;;;;;;;1.92;1.20;;;13.80;99.90;;;;;;6091468;23;20046;-83
2021/05/23 10:40:25;;;;;;;1.35;1.20;;;14.00;99.90;;;;;;6098416;23;20041;-83
2021/05/23 10:42:59;;;;;;;1.33;1.10;;;14.40;99.90;;;;;;6093925;23;20112;-83
2021/05/23 10:45:39;;;;;;;2.50;1.27;;;14.70;99.90;;;;;;6096467;23;20026;-82
2021/05/23 10:48:32;;;;;;;1.50;0.90;;;14.90;99.90;;;;;;6094516;23;20076;-83
2021/05/23 10:51:10;;;;;;;2.47;0.80;;;15.10;99.90;;;;;;6092199;23;20041;-83
2021/05/23 10:53:37;;;;;;;3.40;0.73;;;15.50;99.90;;;;;;6095797;23;20038;-82
2021/05/23 10:56:04;;;;;;;3.20;0.80;;;16.10;99.90;;;;;;6095543;23;20024;-83
2021/05/23 10:58:31;;;;;;;3.15;1.10;;;16.60;99.90;;;;;;6093231;23;20037;-83
2021/05/23 11:01:00;;;;;;;3.42;1.15;;;17.10;99.90;;;;;;6095976;23;20454;-83
2021/05/23 11:03:27;;;;;;;1.38;0.75;;;17.40;99.90;;;;;;6096116;23;20049;-83
2021/05/23 11:06:07;;;;;;;2.30;0.88;;;17.50;98.70;;;;;;6094637;23;20032;-83
2021/05/23 11:08:36;;;;;;;1.92;0.77;;;17.30;98.20;;;;;;6095156;23;20049;-83
2021/05/23 11:11:03;;;;;;;2.05;0.80;;;17.00;97.70;;;;;;6093878;23;20025;-83
2021/05/23 11:13:37;;;;;;;6.32;1.10;;;16.90;96.40;;;;;;6094703;23;20026;-83
2021/05/23 11:16:16;;;;;;;3.58;1.25;;;16.60;96.40;;;;;;6095633;23;20042;-82
2021/05/23 11:18:44;;;;;;;5.25;1.15;;;16.40;97.40;;;;;;6094738;23;20100;-82
2021/05/23 11:21:13;;;;;;;1.10;0.95;;;16.20;97.90;;;;;;6095573;23;20030;-82
2021/05/23 11:23:50;;;;;;;3.55;1.05;;;16.20;98.80;;;;;;6095746;23;20026;-82
2021/05/23 11:26:18;;;;;;;3.20;1.08;;;16.10;97.10;;;;;;6094027;23;20029;-83
2021/05/23 11:28:48;;;;;;;2.42;0.93;;;15.80;96.20;;;;;;6095111;23;20048;-83
2021/05/23 11:31:26;;;;;;;6.53;1.60;;;15.60;96.70;;;;;;6094107;23;20049;-82
2021/05/23 11:33:53;;;;;;;4.15;1.10;;;15.50;97.80;;;;;;6095442;23;20350;-82
2021/05/23 11:36:22;;;;;;;3.47;1.30;;;15.40;98.20;;;;;;6094466;23;20214;-83
2021/05/23 11:38:49;;;;;;;7.65;2.10;;;15.30;98.50;;;;;;6095268;23;20026;-82
2021/05/23 11:41:46;;;;;;;7.85;2.05;;;15.30;99.00;;;;;;6094449;23;20029;-82
2021/05/23 11:44:14;;;;;;;5.18;1.48;;;15.20;99.70;;;;;;6070519;23;20025;-85
2021/05/23 11:46:44;;;;;;;4.78;1.55;;;15.30;99.90;;;;;;6094344;23;20454;-82
2021/05/23 11:49:38;;;;;;;6.22;2.05;;;15.60;99.90;;;;;;6093319;23;20077;-83
2021/05/23 11:52:06;;;;;;;8.13;2.20;;;15.90;99.90;;;;;;6093013;23;20022;-82
2021/05/23 11:54:33;;;;;;;5.57;1.88;;;16.30;98.10;;;;;;6094006;23;20117;-83
2021/05/23 11:57:04;;;;;;;11.32;2.25;;;16.50;99.20;;;;;;6072028;23;20093;-82
2021/05/23 11:59:32;;;;;;;8.93;1.90;;;16.70;99.60;;;;;;6095848;23;20462;-83
2021/05/23 12:01:59;;;;;;;11.00;1.75;;;16.90;97.70;;;;;;6097154;23;20021;-83
2021/05/23 12:04:26;;;;;;;10.18;2.50;;;16.90;96.60;;;;;;6094425;23;20006;-83
2021/05/23 12:06:55;;;;;;;4.63;1.58;;;17.00;97.10;;;;;;6095618;23;20018;-83
2021/05/23 12:09:31;;;;;;;4.50;1.10;;;17.20;95.10;;;;;;6122254;23;20021;-83
2021/05/23 12:12:00;;;;;;;6.80;1.20;;;17.40;92.20;;;;;;6080470;23;20018;-83
2021/05/23 12:14:34;;;;;;;2.42;1.00;;;17.60;92.60;;;;;;6103804;23;20018;-84
2021/05/23 12:17:18;;;;;;;5.13;1.90;;;18.10;90.80;;;;;;6095858;23;20025;-83
2021/05/23 12:19:58;;;;;;;4.28;1.10;;;18.70;91.00;;;;;;6095561;23;20038;-83
2021/05/23 12:22:30;;;;;;;4.88;1.27;;;19.30;88.00;;;;;;6098446;23;20076;-83
2021/05/23 12:25:00;;;;;;;5.55;1.33;;;20.10;82.10;;;;;;6107982;23;20028;-84
2021/05/23 12:27:32;;;;;;;4.38;1.45;;;20.90;78.40;;;;;;6100533;23;20713;-84
2021/05/23 12:30:21;;;;;;;3.38;0.90;;;21.60;72.40;;;;;;6099222;23;20038;-84
2021/05/23 12:32:52;;;;;;;1.67;0.82;;;22.00;66.50;;;;;;6098938;23;20041;-84
2021/05/23 12:35:25;;;;;;;2.63;1.38;;;21.80;63.70;;;;;;6097521;23;20517;-84
2021/05/23 12:37:57;;;;;;;4.77;0.93;;;21.70;63.80;;;;;;6098222;23;20053;-84
2021/05/23 12:40:31;;;;;;;2.78;0.93;;;21.90;61.90;;;;;;6096115;23;20025;-84
2021/05/23 12:43:22;;;;;;;4.32;1.00;;;21.90;60.40;;;;;;6096479;23;20028;-84
2021/05/23 12:46:07;;;;;;;5.63;1.00;;;21.80;58.90;;;;;;6098926;23;20048;-84
2021/05/23 12:48:36;;;;;;;1.98;0.88;;;21.60;58.30;;;;;;6124201;23;20044;-83
2021/05/23 12:51:11;;;;;;;4.65;1.35;;;21.70;58.00;;;;;;6097417;23;20085;-84
2021/05/23 12:53:48;;;;;;;3.78;1.20;;;21.90;58.20;;;;;;6097866;23;20045;-84
2021/05/23 12:56:17;;;;;;;3.90;1.23;;;21.90;58.00;;;;;;6098052;23;20029;-84
2021/05/23 12:58:48;;;;;;;2.67;0.80;;;21.90;57.90;;;;;;6097539;23;20026;-84